Aviation Digital Data Service (ADDS)

Output produced by METARs form (1103 UTC 30 April 2017)
found at http://www.aviationweather.gov/adds/metars/
 
MPPA 301100Z 00000KT 8000 FEW020 25/// Q1010
TAF MPPA 301100Z 3012/0118 02006KT 9999 SCT017 
     BECMG 3013/3017 33006KT 
     PROB30 
     TEMPO 3017/3021 6000 TSRA SCT016CB BKN080
       
TAF MPDA 300500Z 3006/3018 00000KT 9999 FEW025 
     TEMPO 3014/3018 30005KT 9000 SCT017 BKN090
       
MPMG 301100Z VRB01KT 9000 FEW020 26/25 Q1010 NOSIG
TAF MPMG 300500Z 3006/3018 00000KT 9999 FEW025 
     TEMPO 3014/3018 16006KT 9000 SCT016CB BKN080
       
MPTO 301100Z 00000KT 9999 FEW018CB SCT090 25/25 Q1010 NOSIG
TAF MPTO 301100Z 3012/0118 VRB02KT 9999 SCT018 
     TEMPO 3013/3017 02006KT 9000 SCT017 SCT100 
     PROB30 
     TEMPO 3018/3022 6000 TSRA SCT015CB BKN080